Time;durP1;ratioP1;P1;durP2;ratioP2;P2;SDS_P1;SDS_P2;PMS_P1;PMS_P2;Temp;Humidity;BMP_temperature;BMP_pressure;BME280_temperature;BME280_humidity;BME280_pressure;Samples;Min_cycle;Max_cycle;Signal;HPM_P1;HPM_P2
2023/07/17 00:01:40;;;;;;;7.45;3.65;;;;;;;;;;5064521;28;20028;-76
2023/07/17 00:04:06;;;;;;;6.07;3.13;;;;;;;;;;5069130;28;20028;-77
2023/07/17 00:06:33;;;;;;;6.53;3.17;;;;;;;;;;5067421;28;20040;-77
2023/07/17 00:08:59;;;;;;;8.35;3.83;;;;;;;;;;5069682;28;20363;-76
2023/07/17 00:11:25;;;;;;;7.35;4.32;;;;;;;;;;5067706;28;20042;-77
2023/07/17 00:13:51;;;;;;;5.55;4.13;;;;;;;;;;5067243;28;20090;-77
2023/07/17 00:16:17;;;;;;;5.75;3.95;;;;;;;;;;5070969;28;20039;-76
2023/07/17 00:18:43;;;;;;;6.28;3.50;;;;;;;;;;5065804;28;20095;-76
2023/07/17 00:21:10;;;;;;;7.95;4.15;;;;;;;;;;5073006;28;20028;-76
2023/07/17 00:23:36;;;;;;;7.00;4.38;;;;;;;;;;5079424;28;20021;-76
2023/07/17 00:26:02;;;;;;;6.63;3.63;;;;;;;;;;5079623;28;20037;-76
2023/07/17 00:28:28;;;;;;;7.43;4.05;;;;;;;;;;5088731;28;20029;-76
2023/07/17 00:30:55;;;;;;;9.55;4.50;;;;;;;;;;5081329;28;20029;-77
2023/07/17 00:33:21;;;;;;;7.13;3.65;;;;;;;;;;5081065;28;20526;-76
2023/07/17 00:35:47;;;;;;;5.97;4.32;;;;;;;;;;5077519;28;20043;-77
2023/07/17 00:38:13;;;;;;;7.22;4.07;;;;;;;;;;5074535;28;20016;-77
2023/07/17 00:40:39;;;;;;;5.22;3.53;;;;;;;;;;5074674;28;20143;-76
2023/07/17 00:43:09;;;;;;;8.65;4.80;;;;;;;;;;5074633;28;20078;-76
2023/07/17 00:45:35;;;;;;;7.35;4.60;;;;;;;;;;5069189;28;20037;-75
2023/07/17 00:48:03;;;;;;;8.38;3.65;;;;;;;;;;5070459;28;20107;-77
2023/07/17 00:50:29;;;;;;;9.05;4.45;;;;;;;;;;5067773;28;20040;-76
2023/07/17 00:52:55;;;;;;;8.27;4.15;;;;;;;;;;5064317;28;20033;-76
2023/07/17 00:55:21;;;;;;;7.05;3.80;;;;;;;;;;5064608;28;20020;-76
2023/07/17 00:57:49;;;;;;;7.63;4.32;;;;;;;;;;5076979;28;20036;-77
2023/07/17 01:00:16;;;;;;;7.22;4.13;;;;;;;;;;5070768;28;20017;-76
2023/07/17 01:02:42;;;;;;;8.93;4.32;;;;;;;;;;5069109;28;20070;-76
2023/07/17 01:05:08;;;;;;;8.68;4.50;;;;;;;;;;5066419;28;20028;-76
2023/07/17 01:07:37;;;;;;;9.00;4.93;;;;;;;;;;5062457;28;20028;-77
2023/07/17 01:10:05;;;;;;;5.75;3.85;;;;;;;;;;5065729;28;20024;-77
2023/07/17 01:12:32;;;;;;;6.20;3.88;;;;;;;;;;5062169;28;20475;-77
2023/07/17 01:14:58;;;;;;;8.55;4.15;;;;;;;;;;5063325;28;20569;-76
2023/07/17 01:17:24;;;;;;;7.75;4.25;;;;;;;;;;5068290;28;20037;-77
2023/07/17 01:19:51;;;;;;;10.27;4.55;;;;;;;;;;5064623;28;20020;-76
2023/07/17 01:22:26;;;;;;;7.68;4.57;;;;;;;;;;5059264;28;20040;-76
2023/07/17 01:24:52;;;;;;;10.75;4.85;;;;;;;;;;5062647;28;20428;-76
2023/07/17 01:27:18;;;;;;;10.45;4.80;;;;;;;;;;5064753;28;20039;-77
2023/07/17 01:29:44;;;;;;;7.88;4.93;;;;;;;;;;5065938;28;20032;-77
2023/07/17 01:32:10;;;;;;;11.38;5.30;;;;;;;;;;5063358;28;20043;-77
2023/07/17 01:34:38;;;;;;;8.05;4.22;;;;;;;;;;5065336;28;20040;-77
2023/07/17 01:37:05;;;;;;;10.93;4.50;;;;;;;;;;5068100;28;20107;-76
2023/07/17 01:39:31;;;;;;;8.80;5.57;;;;;;;;;;5069042;28;20478;-77
2023/07/17 01:41:57;;;;;;;8.65;4.25;;;;;;;;;;5067383;28;20915;-77
2023/07/17 01:44:27;;;;;;;7.13;4.78;;;;;;;;;;5064761;28;20135;-76
2023/07/17 01:46:54;;;;;;;9.63;5.90;;;;;;;;;;5066660;28;20028;-77
2023/07/17 01:49:20;;;;;;;9.80;4.95;;;;;;;;;;5060938;28;20035;-77
2023/07/17 01:51:46;;;;;;;9.43;5.00;;;;;;;;;;5063814;28;20086;-77
2023/07/17 01:54:12;;;;;;;11.38;4.80;;;;;;;;;;5069043;28;20032;-77
2023/07/17 01:56:39;;;;;;;8.57;4.18;;;;;;;;;;5063237;28;20374;-75
2023/07/17 01:59:05;;;;;;;7.18;4.95;;;;;;;;;;5063181;28;20461;-77
2023/07/17 02:01:33;;;;;;;8.95;4.60;;;;;;;;;;5066776;28;20460;-77
2023/07/17 02:03:59;;;;;;;8.02;4.78;;;;;;;;;;5068981;28;20711;-77
2023/07/17 02:06:26;;;;;;;8.90;4.90;;;;;;;;;;5068317;28;20036;-76
2023/07/17 02:08:52;;;;;;;10.02;4.75;;;;;;;;;;5071883;28;20020;-76
2023/07/17 02:11:19;;;;;;;11.60;4.63;;;;;;;;;;5067277;28;20595;-77
2023/07/17 02:13:45;;;;;;;8.70;4.65;;;;;;;;;;5071910;28;20029;-76
2023/07/17 02:16:11;;;;;;;8.60;4.55;;;;;;;;;;5080502;28;20094;-76
2023/07/17 02:18:37;;;;;;;7.28;4.35;;;;;;;;;;5060985;28;20017;-77
2023/07/17 02:21:04;;;;;;;9.95;4.75;;;;;;;;;;5065401;28;20496;-77
2023/07/17 02:23:30;;;;;;;8.00;4.85;;;;;;;;;;5065652;28;20032;-77
2023/07/17 02:25:56;;;;;;;8.70;4.47;;;;;;;;;;5064918;28;20518;-77
2023/07/17 02:28:22;;;;;;;9.20;4.20;;;;;;;;;;5067325;28;20033;-76
2023/07/17 02:30:49;;;;;;;5.47;3.83;;;;;;;;;;5060412;28;20029;-77
2023/07/17 02:33:15;;;;;;;10.35;4.85;;;;;;;;;;5061332;28;20081;-76
2023/07/17 02:35:41;;;;;;;8.20;4.40;;;;;;;;;;5062601;28;20027;-76
2023/07/17 02:38:07;;;;;;;9.30;4.25;;;;;;;;;;5062431;28;20116;-76
2023/07/17 02:40:33;;;;;;;7.28;4.35;;;;;;;;;;5062914;28;20028;-77
2023/07/17 02:42:59;;;;;;;9.27;4.88;;;;;;;;;;5065064;28;20171;-76
2023/07/17 02:45:25;;;;;;;7.43;3.97;;;;;;;;;;5065810;28;20063;-77
2023/07/17 02:47:52;;;;;;;8.20;4.38;;;;;;;;;;5066622;28;20017;-77
2023/07/17 02:50:18;;;;;;;7.72;4.13;;;;;;;;;;5064531;28;20560;-77
2023/07/17 02:52:45;;;;;;;9.35;4.68;;;;;;;;;;5065582;28;20029;-77
2023/07/17 02:55:11;;;;;;;12.35;5.78;;;;;;;;;;5057653;28;20039;-77
2023/07/17 02:57:37;;;;;;;6.07;4.07;;;;;;;;;;5062981;28;20588;-76
2023/07/17 03:00:08;;;;;;;7.40;4.20;;;;;;;;;;5063401;28;20028;-77
2023/07/17 03:02:35;;;;;;;9.18;4.28;;;;;;;;;;5065663;28;20628;-76
2023/07/17 03:05:04;;;;;;;8.70;4.22;;;;;;;;;;5063966;28;20103;-77
2023/07/17 03:07:30;;;;;;;7.38;4.22;;;;;;;;;;5064082;28;20027;-76
2023/07/17 03:09:56;;;;;;;10.18;5.07;;;;;;;;;;5064123;28;20110;-76
2023/07/17 03:12:22;;;;;;;9.38;4.22;;;;;;;;;;5062606;28;20024;-76
2023/07/17 03:14:48;;;;;;;8.50;4.57;;;;;;;;;;5068044;28;20032;-77
2023/07/17 03:17:14;;;;;;;7.18;4.10;;;;;;;;;;5063927;28;20036;-77
2023/07/17 03:19:41;;;;;;;8.48;4.65;;;;;;;;;;5068401;28;20035;-76
2023/07/17 03:22:07;;;;;;;7.22;3.72;;;;;;;;;;5066171;28;20502;-76
2023/07/17 03:24:33;;;;;;;8.32;4.05;;;;;;;;;;5068613;28;20075;-77
2023/07/17 03:26:59;;;;;;;7.88;4.50;;;;;;;;;;5072692;28;20039;-76
2023/07/17 03:29:26;;;;;;;6.10;3.85;;;;;;;;;;5073520;28;20031;-74
2023/07/17 03:31:52;;;;;;;8.93;3.90;;;;;;;;;;5073865;28;20485;-76
2023/07/17 03:34:19;;;;;;;8.30;4.13;;;;;;;;;;5076252;28;20036;-76
2023/07/17 03:36:45;;;;;;;6.45;4.00;;;;;;;;;;5082613;28;20008;-75
2023/07/17 03:39:11;;;;;;;5.38;3.60;;;;;;;;;;5089030;28;20242;-76
2023/07/17 03:41:38;;;;;;;5.18;3.35;;;;;;;;;;5077000;28;20032;-77
2023/07/17 03:44:05;;;;;;;8.80;3.95;;;;;;;;;;5079505;28;20034;-76
2023/07/17 03:46:32;;;;;;;7.65;3.22;;;;;;;;;;5072759;28;20382;-75
2023/07/17 03:48:58;;;;;;;7.32;3.90;;;;;;;;;;5077066;28;20024;-77
2023/07/17 03:51:24;;;;;;;8.20;4.22;;;;;;;;;;5071853;28;20084;-76
2023/07/17 03:53:53;;;;;;;6.38;3.60;;;;;;;;;;5077932;28;20090;-76
2023/07/17 03:56:19;;;;;;;10.18;3.72;;;;;;;;;;5075105;28;20024;-76
2023/07/17 03:58:47;;;;;;;9.05;3.90;;;;;;;;;;5092772;28;20390;-76
2023/07/17 04:01:13;;;;;;;8.10;3.63;;;;;;;;;;5068818;28;20543;-76
2023/07/17 04:03:40;;;;;;;8.43;3.60;;;;;;;;;;5073311;28;20064;-76
2023/07/17 04:06:08;;;;;;;5.53;3.60;;;;;;;;;;5068255;28;20032;-76
2023/07/17 04:08:34;;;;;;;6.93;3.72;;;;;;;;;;5068926;28;20038;-76
2023/07/17 04:11:01;;;;;;;5.65;3.55;;;;;;;;;;5071618;28;20039;-76
2023/07/17 04:13:27;;;;;;;10.70;3.85;;;;;;;;;;5090758;28;20086;-76
2023/07/17 04:15:53;;;;;;;5.78;3.50;;;;;;;;;;5073354;28;20045;-76
2023/07/17 04:18:19;;;;;;;6.47;3.50;;;;;;;;;;5069613;28;20036;-76
2023/07/17 04:20:45;;;;;;;5.55;3.50;;;;;;;;;;5071214;28;20044;-77
2023/07/17 04:23:12;;;;;;;8.70;3.85;;;;;;;;;;5069120;28;20073;-76
2023/07/17 04:25:39;;;;;;;4.22;2.90;;;;;;;;;;5069616;28;20032;-76
2023/07/17 04:28:05;;;;;;;5.95;2.90;;;;;;;;;;5070483;28;20036;-76
2023/07/17 04:30:31;;;;;;;5.80;2.70;;;;;;;;;;5072993;28;20036;-75
2023/07/17 04:32:59;;;;;;;6.68;2.80;;;;;;;;;;5077410;28;20020;-75
2023/07/17 04:35:25;;;;;;;4.88;2.75;;;;;;;;;;5073848;28;20086;-76
2023/07/17 04:37:52;;;;;;;5.53;2.70;;;;;;;;;;5075114;28;20112;-76
2023/07/17 04:40:18;;;;;;;5.18;3.00;;;;;;;;;;5066732;28;20821;-76
2023/07/17 04:42:44;;;;;;;4.15;2.47;;;;;;;;;;5066613;28;20659;-76
2023/07/17 04:45:12;;;;;;;2.63;2.22;;;;;;;;;;5067133;28;20029;-76
2023/07/17 04:47:38;;;;;;;5.50;2.40;;;;;;;;;;5064107;28;20517;-76
2023/07/17 04:50:05;;;;;;;6.72;2.90;;;;;;;;;;5066000;28;20033;-77
2023/07/17 04:52:31;;;;;;;7.50;2.85;;;;;;;;;;5062366;28;20439;-77
2023/07/17 04:54:57;;;;;;;3.55;2.40;;;;;;;;;;5070640;28;20020;-76
2023/07/17 04:57:23;;;;;;;8.30;2.40;;;;;;;;;;5064696;28;20051;-76
2023/07/17 04:59:49;;;;;;;5.47;2.28;;;;;;;;;;5069041;28;20028;-76
2023/07/17 05:02:15;;;;;;;6.57;2.35;;;;;;;;;;5065173;28;20032;-75
2023/07/17 05:04:41;;;;;;;3.42;2.60;;;;;;;;;;5068854;28;20032;-77
2023/07/17 05:07:07;;;;;;;4.60;2.42;;;;;;;;;;5060450;28;20070;-76
2023/07/17 05:09:33;;;;;;;5.53;2.50;;;;;;;;;;5069645;28;20033;-76
2023/07/17 05:11:59;;;;;;;5.47;2.10;;;;;;;;;;5067606;28;20024;-77
2023/07/17 05:14:26;;;;;;;4.47;2.25;;;;;;;;;;5068093;28;20078;-76
2023/07/17 05:16:52;;;;;;;5.03;2.30;;;;;;;;;;5062526;28;20521;-76
2023/07/17 05:19:18;;;;;;;2.95;2.30;;;;;;;;;;5067839;28;20081;-77
2023/07/17 05:21:44;;;;;;;5.68;2.35;;;;;;;;;;5066737;28;20306;-77
2023/07/17 05:24:10;;;;;;;4.43;2.20;;;;;;;;;;5064366;28;20029;-76
2023/07/17 05:26:36;;;;;;;6.30;2.38;;;;;;;;;;5066526;28;20100;-76
2023/07/17 05:29:04;;;;;;;5.63;2.38;;;;;;;;;;5071451;28;20021;-77
2023/07/17 05:31:30;;;;;;;6.10;2.00;;;;;;;;;;5066233;28;20028;-76
2023/07/17 05:33:56;;;;;;;5.70;2.50;;;;;;;;;;5064560;28;20028;-77
2023/07/17 05:36:23;;;;;;;5.97;2.90;;;;;;;;;;5064669;28;20127;-77
2023/07/17 05:38:49;;;;;;;6.07;2.58;;;;;;;;;;5068439;28;20021;-76
2023/07/17 05:41:15;;;;;;;5.25;2.13;;;;;;;;;;5066692;28;20029;-76
2023/07/17 05:43:41;;;;;;;4.53;2.30;;;;;;;;;;5065076;28;20140;-77
2023/07/17 05:46:07;;;;;;;6.47;2.30;;;;;;;;;;5070431;28;20362;-75
2023/07/17 05:48:34;;;;;;;4.90;2.40;;;;;;;;;;5065016;28;20028;-76
2023/07/17 05:51:00;;;;;;;10.07;2.88;;;;;;;;;;5063572;28;20465;-77
2023/07/17 05:53:26;;;;;;;4.55;2.30;;;;;;;;;;5064359;28;20103;-76
2023/07/17 05:55:52;;;;;;;3.95;3.03;;;;;;;;;;5061628;28;20036;-77
2023/07/17 05:58:18;;;;;;;3.00;2.30;;;;;;;;;;5059894;28;20032;-78
2023/07/17 06:00:45;;;;;;;4.70;2.20;;;;;;;;;;5059872;28;20021;-76
2023/07/17 06:03:11;;;;;;;8.95;3.22;;;;;;;;;;5061402;28;20058;-77
2023/07/17 06:05:38;;;;;;;4.75;2.30;;;;;;;;;;5066381;28;20620;-77
2023/07/17 06:08:05;;;;;;;4.93;2.63;;;;;;;;;;5070627;28;20096;-77
2023/07/17 06:10:32;;;;;;;6.50;2.53;;;;;;;;;;5061513;28;20033;-76
2023/07/17 06:12:59;;;;;;;4.50;2.10;;;;;;;;;;5064129;28;20106;-78
2023/07/17 06:15:26;;;;;;;4.05;2.45;;;;;;;;;;5064207;28;20059;-75
2023/07/17 06:17:52;;;;;;;3.58;2.63;;;;;;;;;;5058693;28;20027;-77
2023/07/17 06:20:20;;;;;;;5.35;2.38;;;;;;;;;;5058646;28;20029;-76
2023/07/17 06:22:47;;;;;;;4.55;2.70;;;;;;;;;;5057052;28;20378;-77
2023/07/17 06:25:13;;;;;;;4.28;2.20;;;;;;;;;;5068655;28;20516;-76
2023/07/17 06:27:39;;;;;;;6.07;3.05;;;;;;;;;;5073712;28;20036;-76
2023/07/17 06:30:06;;;;;;;7.85;2.60;;;;;;;;;;5070835;28;20032;-76
2023/07/17 06:32:33;;;;;;;5.85;2.63;;;;;;;;;;5072395;28;20498;-76
2023/07/17 06:34:59;;;;;;;3.83;2.75;;;;;;;;;;5071976;28;20036;-77
2023/07/17 06:37:25;;;;;;;3.15;2.63;;;;;;;;;;5066564;28;20040;-75
2023/07/17 06:39:51;;;;;;;7.68;2.40;;;;;;;;;;5073673;28;20043;-76
2023/07/17 06:42:17;;;;;;;4.32;2.30;;;;;;;;;;5071697;28;20021;-75
2023/07/17 06:44:43;;;;;;;3.17;2.15;;;;;;;;;;5075937;28;20028;-76
2023/07/17 06:47:10;;;;;;;4.88;2.83;;;;;;;;;;5082734;28;20032;-75
2023/07/17 06:49:36;;;;;;;3.95;2.03;;;;;;;;;;5080847;28;20059;-76
2023/07/17 06:52:03;;;;;;;4.38;2.60;;;;;;;;;;5078727;28;20089;-76
2023/07/17 06:54:29;;;;;;;7.05;2.33;;;;;;;;;;5076739;28;20028;-76
2023/07/17 06:56:55;;;;;;;4.72;2.20;;;;;;;;;;5070817;28;20024;-76
2023/07/17 06:59:25;;;;;;;4.30;2.70;;;;;;;;;;5068399;28;20028;-76
2023/07/17 07:01:54;;;;;;;3.90;2.42;;;;;;;;;;5074163;28;20027;-77
2023/07/17 07:04:21;;;;;;;4.75;3.00;;;;;;;;;;5068319;28;20028;-76
2023/07/17 07:06:47;;;;;;;4.18;2.47;;;;;;;;;;5079362;28;20379;-77
2023/07/17 07:09:13;;;;;;;9.32;2.30;;;;;;;;;;5072861;28;20082;-76
2023/07/17 07:11:39;;;;;;;4.35;2.53;;;;;;;;;;5067117;28;20024;-77
2023/07/17 07:14:05;;;;;;;3.17;2.17;;;;;;;;;;5063536;28;20029;-78
2023/07/17 07:16:32;;;;;;;5.70;2.20;;;;;;;;;;5075019;28;20051;-77
2023/07/17 07:18:58;;;;;;;3.85;2.40;;;;;;;;;;5073037;28;20025;-78
2023/07/17 07:21:24;;;;;;;5.15;2.50;;;;;;;;;;5073833;28;20052;-77
2023/07/17 07:23:50;;;;;;;3.17;2.05;;;;;;;;;;5069608;28;20036;-77
2023/07/17 07:26:16;;;;;;;4.38;2.50;;;;;;;;;;5074169;28;20107;-76
2023/07/17 07:28:42;;;;;;;5.10;3.03;;;;;;;;;;5073780;28;20035;-77
2023/07/17 07:31:08;;;;;;;3.28;2.40;;;;;;;;;;5073747;28;20834;-77
2023/07/17 07:33:36;;;;;;;6.68;2.67;;;;;;;;;;5067235;28;20036;-76
2023/07/17 07:36:02;;;;;;;3.15;2.50;;;;;;;;;;5069210;28;20037;-76
2023/07/17 07:38:28;;;;;;;4.55;3.00;;;;;;;;;;5069862;28;20027;-77
2023/07/17 07:40:55;;;;;;;4.80;3.00;;;;;;;;;;5072195;28;20031;-77
2023/07/17 07:43:21;;;;;;;4.78;2.55;;;;;;;;;;5069657;28;20026;-76
2023/07/17 07:45:47;;;;;;;4.32;3.17;;;;;;;;;;5064042;28;20028;-77
2023/07/17 07:48:13;;;;;;;3.92;2.70;;;;;;;;;;5068280;28;20509;-76
2023/07/17 07:50:39;;;;;;;4.63;2.85;;;;;;;;;;5068280;28;20175;-77
2023/07/17 07:53:05;;;;;;;4.20;2.85;;;;;;;;;;5069536;28;20033;-77
2023/07/17 07:55:31;;;;;;;4.57;2.80;;;;;;;;;;5067518;28;20033;-78
2023/07/17 07:57:58;;;;;;;7.55;2.90;;;;;;;;;;5067194;28;20390;-78
2023/07/17 08:00:24;;;;;;;5.30;3.10;;;;;;;;;;5065893;28;20029;-76
2023/07/17 08:02:50;;;;;;;5.57;2.42;;;;;;;;;;5084075;28;20024;-78
2023/07/17 08:05:16;;;;;;;3.83;3.33;;;;;;;;;;5066228;28;20516;-78
2023/07/17 08:07:42;;;;;;;5.65;3.42;;;;;;;;;;5061375;28;20040;-77
2023/07/17 08:10:08;;;;;;;4.57;4.05;;;;;;;;;;5066762;28;21101;-77
2023/07/17 08:12:35;;;;;;;6.63;4.70;;;;;;;;;;5063573;28;20253;-77
2023/07/17 08:15:01;;;;;;;6.35;3.88;;;;;;;;;;5061872;28;20040;-76
2023/07/17 08:17:27;;;;;;;4.20;3.80;;;;;;;;;;5068213;28;20041;-76
2023/07/17 08:19:53;;;;;;;3.95;3.55;;;;;;;;;;5063898;28;20025;-77
2023/07/17 08:22:19;;;;;;;4.45;3.40;;;;;;;;;;5069300;28;20450;-77
2023/07/17 08:24:45;;;;;;;4.25;3.63;;;;;;;;;;5062986;28;20032;-77
2023/07/17 08:27:12;;;;;;;5.03;3.42;;;;;;;;;;5067725;28;20028;-76
2023/07/17 08:29:38;;;;;;;4.35;3.55;;;;;;;;;;5065205;28;20052;-77
2023/07/17 08:32:04;;;;;;;4.28;3.17;;;;;;;;;;5067781;28;20407;-77
2023/07/17 08:34:30;;;;;;;3.53;3.08;;;;;;;;;;5064315;28;20070;-76
2023/07/17 08:36:56;;;;;;;4.28;2.80;;;;;;;;;;5066147;28;20024;-76
2023/07/17 08:39:22;;;;;;;2.45;2.15;;;;;;;;;;5067940;28;21419;-76
2023/07/17 08:41:50;;;;;;;3.38;2.40;;;;;;;;;;5067072;28;20017;-76
2023/07/17 08:44:17;;;;;;;2.53;2.17;;;;;;;;;;5059858;28;20025;-76
2023/07/17 08:46:43;;;;;;;2.58;2.38;;;;;;;;;;5062577;28;20109;-77
2023/07/17 08:49:11;;;;;;;4.85;2.63;;;;;;;;;;5065015;28;20024;-76
2023/07/17 08:51:37;;;;;;;3.33;3.03;;;;;;;;;;5067272;28;20033;-76
2023/07/17 08:54:06;;;;;;;4.07;2.78;;;;;;;;;;5065976;28;22124;-76
2023/07/17 08:56:32;;;;;;;4.93;2.55;;;;;;;;;;5061778;28;20036;-76
2023/07/17 08:58:59;;;;;;;5.82;3.17;;;;;;;;;;5063029;28;20028;-76
2023/07/17 09:01:26;;;;;;;4.32;2.75;;;;;;;;;;5059415;28;20028;-76
2023/07/17 09:03:52;;;;;;;5.32;2.83;;;;;;;;;;5065514;28;20029;-77
2023/07/17 09:06:23;;;;;;;2.90;2.55;;;;;;;;;;5068350;28;20032;-76
2023/07/17 09:08:49;;;;;;;3.47;2.95;;;;;;;;;;5060365;28;20032;-77
2023/07/17 09:11:15;;;;;;;2.85;2.65;;;;;;;;;;5057250;28;20186;-77
2023/07/17 09:13:45;;;;;;;4.35;2.55;;;;;;;;;;5057720;28;20032;-76
2023/07/17 09:16:13;;;;;;;4.43;2.30;;;;;;;;;;5061631;28;20592;-76
2023/07/17 09:18:40;;;;;;;3.55;2.65;;;;;;;;;;5058025;28;20698;-77
2023/07/17 09:21:06;;;;;;;3.30;2.58;;;;;;;;;;5068227;28;20040;-78
2023/07/17 09:23:39;;;;;;;3.67;2.60;;;;;;;;;;5068435;28;20073;-77
2023/07/17 09:26:06;;;;;;;3.40;2.60;;;;;;;;;;5068974;28;20113;-77
2023/07/17 09:28:37;;;;;;;6.70;2.60;;;;;;;;;;5071712;28;20111;-76
2023/07/17 09:31:03;;;;;;;3.47;2.40;;;;;;;;;;5080177;28;20028;-77
2023/07/17 09:33:36;;;;;;;3.33;2.35;;;;;;;;;;5070037;28;20047;-76
2023/07/17 09:36:02;;;;;;;2.65;2.15;;;;;;;;;;5083389;28;20041;-76
2023/07/17 09:38:28;;;;;;;2.75;2.30;;;;;;;;;;5071397;28;20040;-77
2023/07/17 09:40:54;;;;;;;2.40;2.05;;;;;;;;;;5069223;28;20441;-77
2023/07/17 09:43:30;;;;;;;2.30;2.10;;;;;;;;;;5070591;28;20386;-77
2023/07/17 09:46:00;;;;;;;2.97;1.95;;;;;;;;;;5071839;28;20478;-76
2023/07/17 09:48:30;;;;;;;3.28;2.30;;;;;;;;;;5071762;28;20028;-76
2023/07/17 09:51:00;;;;;;;2.63;1.88;;;;;;;;;;5077556;28;20028;-76
2023/07/17 09:53:26;;;;;;;2.72;2.10;;;;;;;;;;5089068;28;20029;-77
2023/07/17 09:55:53;;;;;;;2.60;2.40;;;;;;;;;;5084867;28;20371;-76
2023/07/17 09:58:22;;;;;;;4.28;2.20;;;;;;;;;;5086158;28;20193;-77
2023/07/17 10:00:49;;;;;;;2.88;2.13;;;;;;;;;;5075533;28;20028;-76
2023/07/17 10:03:17;;;;;;;2.45;1.83;;;;;;;;;;5089494;28;20024;-76
2023/07/17 10:05:43;;;;;;;2.45;2.10;;;;;;;;;;5075176;28;20108;-77
2023/07/17 10:08:10;;;;;;;2.08;1.88;;;;;;;;;;5074313;28;20075;-76
2023/07/17 10:10:37;;;;;;;2.20;2.00;;;;;;;;;;5065243;28;20469;-76
2023/07/17 10:13:03;;;;;;;2.17;1.83;;;;;;;;;;5071514;28;20413;-76
2023/07/17 10:15:30;;;;;;;2.08;1.88;;;;;;;;;;5071962;28;20040;-77
2023/07/17 10:17:57;;;;;;;2.03;1.83;;;;;;;;;;5071376;28;20029;-76
2023/07/17 10:20:23;;;;;;;1.88;1.77;;;;;;;;;;5069427;28;20021;-76
2023/07/17 10:22:50;;;;;;;2.65;2.10;;;;;;;;;;5068451;28;20158;-76
2023/07/17 10:25:19;;;;;;;1.92;1.73;;;;;;;;;;5067210;28;20507;-77
2023/07/17 10:27:53;;;;;;;1.98;1.80;;;;;;;;;;5069583;28;20033;-77
2023/07/17 10:30:25;;;;;;;1.80;1.70;;;;;;;;;;5068104;28;20800;-78
2023/07/17 10:33:10;;;;;;;1.70;1.60;;;;;;;;;;5068252;28;20145;-77
2023/07/17 10:35:51;;;;;;;1.80;1.70;;;;;;;;;;5067088;28;20048;-77
2023/07/17 10:38:27;;;;;;;1.83;1.73;;;;;;;;;;5067083;28;20472;-77
2023/07/17 10:41:02;;;;;;;2.08;1.88;;;;;;;;;;5073961;28;20039;-77
2023/07/17 10:43:28;;;;;;;1.80;1.70;;;;;;;;;;5069469;28;20024;-77
2023/07/17 10:45:54;;;;;;;1.67;1.58;;;;;;;;;;5069049;28;20028;-78
2023/07/17 10:48:24;;;;;;;2.45;1.70;;;;;;;;;;5068866;28;20021;-77
2023/07/17 10:50:52;;;;;;;2.47;1.80;;;;;;;;;;5065230;28;20024;-77
2023/07/17 10:53:18;;;;;;;1.88;1.50;;;;;;;;;;5066768;28;20029;-77
2023/07/17 10:55:46;;;;;;;1.70;1.60;;;;;;;;;;5067330;28;20024;-77
2023/07/17 10:58:12;;;;;;;2.38;1.73;;;;;;;;;;5068644;28;20110;-78
2023/07/17 11:00:42;;;;;;;2.47;1.77;;;;;;;;;;5068602;28;20017;-77
2023/07/17 11:03:09;;;;;;;2.60;2.00;;;;;;;;;;5057291;28;20032;-77
2023/07/17 11:05:39;;;;;;;2.72;1.80;;;;;;;;;;5069223;28;20071;-76
2023/07/17 11:08:06;;;;;;;1.80;1.70;;;;;;;;;;5069043;28;20353;-77
2023/07/17 11:10:32;;;;;;;2.83;1.80;;;;;;;;;;5065762;28;20024;-77
2023/07/17 11:13:02;;;;;;;2.10;1.90;;;;;;;;;;5067259;28;20025;-77
2023/07/17 11:15:30;;;;;;;1.95;1.80;;;;;;;;;;5064280;28;20068;-76
2023/07/17 11:17:56;;;;;;;3.25;1.98;;;;;;;;;;5067718;28;20029;-77
2023/07/17 11:20:22;;;;;;;2.30;1.88;;;;;;;;;;5070005;28;20076;-77
2023/07/17 11:22:48;;;;;;;1.90;1.75;;;;;;;;;;5065721;28;20023;-77
2023/07/17 11:25:14;;;;;;;1.95;1.60;;;;;;;;;;5066530;28;20102;-77
2023/07/17 11:27:40;;;;;;;1.70;1.60;;;;;;;;;;5066658;28;20078;-77
2023/07/17 11:30:20;;;;;;;2.00;1.90;;;;;;;;;;5068520;28;20129;-77
2023/07/17 11:32:58;;;;;;;3.97;2.75;;;;;;;;;;5066740;28;20032;-77
2023/07/17 11:35:36;;;;;;;1.90;1.80;;;;;;;;;;5068774;28;20565;-77
2023/07/17 11:38:06;;;;;;;1.92;1.70;;;;;;;;;;5071038;28;20063;-77
2023/07/17 11:40:33;;;;;;;1.70;1.60;;;;;;;;;;5066288;28;20025;-77
2023/07/17 11:43:04;;;;;;;2.25;1.80;;;;;;;;;;5074351;28;20036;-77
2023/07/17 11:45:31;;;;;;;2.30;1.85;;;;;;;;;;5073526;28;20043;-77
2023/07/17 11:47:58;;;;;;;1.85;1.67;;;;;;;;;;5073511;28;20074;-77
2023/07/17 11:50:24;;;;;;;2.20;1.65;;;;;;;;;;5076545;28;20032;-77
2023/07/17 11:53:04;;;;;;;1.90;1.70;;;;;;;;;;5079019;28;20024;-77
2023/07/17 11:55:34;;;;;;;2.67;1.73;;;;;;;;;;5071222;28;20047;-78
2023/07/17 11:58:00;;;;;;;1.58;1.48;;;;;;;;;;5070103;28;20024;-77
2023/07/17 12:00:26;;;;;;;2.00;1.75;;;;;;;;;;5071384;28;20066;-79
2023/07/17 12:02:53;;;;;;;1.83;1.73;;;;;;;;;;5071348;28;20124;-76
2023/07/17 12:05:19;;;;;;;3.28;1.80;;;;;;;;;;5069918;28;20025;-76
2023/07/17 12:07:45;;;;;;;1.60;1.50;;;;;;;;;;5070855;28;20033;-79
2023/07/17 12:10:11;;;;;;;1.70;1.60;;;;;;;;;;5061088;28;20027;-76
2023/07/17 12:12:37;;;;;;;4.13;1.80;;;;;;;;;;5073213;28;20032;-77
2023/07/17 12:15:06;;;;;;;1.70;1.60;;;;;;;;;;5068281;28;20440;-75
2023/07/17 12:17:33;;;;;;;1.80;1.70;;;;;;;;;;5076035;28;20052;-77
2023/07/17 12:19:59;;;;;;;2.28;2.08;;;;;;;;;;5074040;28;20024;-77
2023/07/17 12:22:25;;;;;;;2.35;1.70;;;;;;;;;;5075948;28;20453;-77
2023/07/17 12:24:52;;;;;;;2.42;2.05;;;;;;;;;;5070099;28;20040;-77
2023/07/17 12:27:21;;;;;;;2.35;1.88;;;;;;;;;;5067833;28;20111;-77
2023/07/17 12:29:47;;;;;;;1.90;1.70;;;;;;;;;;5074977;28;20025;-76
2023/07/17 12:32:13;;;;;;;2.33;1.70;;;;;;;;;;5069716;28;20055;-76
2023/07/17 12:34:39;;;;;;;2.00;1.70;;;;;;;;;;5068883;28;20039;-76
2023/07/17 12:37:05;;;;;;;1.98;1.70;;;;;;;;;;5067449;28;20379;-77
2023/07/17 12:39:31;;;;;;;2.30;1.90;;;;;;;;;;5068776;28;20029;-77
2023/07/17 12:41:57;;;;;;;3.05;2.35;;;;;;;;;;5074200;28;20085;-77
2023/07/17 12:44:24;;;;;;;3.00;1.75;;;;;;;;;;5080000;28;20060;-77
2023/07/17 12:46:50;;;;;;;1.92;1.70;;;;;;;;;;5067354;28;20649;-76
2023/07/17 12:49:16;;;;;;;3.03;2.05;;;;;;;;;;5066042;28;20033;-78
2023/07/17 12:51:42;;;;;;;2.13;1.88;;;;;;;;;;5065465;28;20028;-77
2023/07/17 12:54:09;;;;;;;2.33;1.92;;;;;;;;;;5088765;28;20036;-77
2023/07/17 12:56:35;;;;;;;2.10;1.90;;;;;;;;;;5070169;28;20033;-77
2023/07/17 12:59:01;;;;;;;3.00;2.25;;;;;;;;;;5072299;28;20188;-81
2023/07/17 13:01:29;;;;;;;2.38;1.90;;;;;;;;;;5078006;28;20092;-76
2023/07/17 13:03:55;;;;;;;2.20;1.98;;;;;;;;;;5072073;28;20036;-77
2023/07/17 13:06:21;;;;;;;1.90;1.80;;;;;;;;;;5079280;28;20390;-77
2023/07/17 13:08:47;;;;;;;2.25;2.05;;;;;;;;;;5085214;28;20009;-77
2023/07/17 13:11:13;;;;;;;3.10;1.80;;;;;;;;;;5068824;28;20028;-78
2023/07/17 13:13:39;;;;;;;1.60;1.50;;;;;;;;;;5069111;28;20039;-77
2023/07/17 13:16:05;;;;;;;2.47;1.70;;;;;;;;;;5068027;28;20036;-77
2023/07/17 13:18:31;;;;;;;1.60;1.50;;;;;;;;;;5066598;28;20449;-76
2023/07/17 13:20:58;;;;;;;4.28;1.77;;;;;;;;;;5068095;28;20024;-77
2023/07/17 13:23:24;;;;;;;1.85;1.67;;;;;;;;;;5069326;28;20177;-76
2023/07/17 13:25:50;;;;;;;2.28;1.65;;;;;;;;;;5067196;28;20368;-77
2023/07/17 13:28:16;;;;;;;2.38;1.80;;;;;;;;;;5067180;28;20030;-78
2023/07/17 13:30:43;;;;;;;2.17;1.80;;;;;;;;;;5065736;28;20024;-76
2023/07/17 13:33:09;;;;;;;4.53;2.60;;;;;;;;;;5059613;28;20029;-76
2023/07/17 13:35:35;;;;;;;1.77;1.67;;;;;;;;;;5054571;28;20064;-77
2023/07/17 13:38:01;;;;;;;2.40;1.80;;;;;;;;;;5064448;28;20102;-76
2023/07/17 13:40:27;;;;;;;2.88;1.80;;;;;;;;;;5061197;28;20032;-77
2023/07/17 13:42:53;;;;;;;1.63;1.52;;;;;;;;;;5064495;28;20838;-77
2023/07/17 13:45:21;;;;;;;2.35;1.70;;;;;;;;;;5060943;28;20036;-77
2023/07/17 13:47:47;;;;;;;2.45;1.60;;;;;;;;;;5058918;28;20782;-77
2023/07/17 13:50:13;;;;;;;1.83;1.67;;;;;;;;;;5065853;28;20157;-77
2023/07/17 13:52:40;;;;;;;3.78;1.90;;;;;;;;;;5064413;28;20020;-77
2023/07/17 13:55:06;;;;;;;3.30;2.00;;;;;;;;;;5064786;28;20036;-78
2023/07/17 13:57:32;;;;;;;1.73;1.63;;;;;;;;;;5060805;28;20481;-77
2023/07/17 13:59:58;;;;;;;1.92;1.67;;;;;;;;;;5065870;28;20024;-77
2023/07/17 14:02:25;;;;;;;2.50;1.70;;;;;;;;;;5063515;28;20490;-77
2023/07/17 14:04:51;;;;;;;1.70;1.60;;;;;;;;;;5062700;28;20043;-77
2023/07/17 14:07:17;;;;;;;1.80;1.70;;;;;;;;;;5060660;28;20098;-76
2023/07/17 14:09:44;;;;;;;1.75;1.65;;;;;;;;;;5063372;28;20056;-77
2023/07/17 14:12:10;;;;;;;1.60;1.50;;;;;;;;;;5065686;28;20996;-77
2023/07/17 14:14:37;;;;;;;2.00;1.80;;;;;;;;;;5062779;28;20039;-77
2023/07/17 14:17:03;;;;;;;2.20;2.00;;;;;;;;;;5065341;28;20506;-78
2023/07/17 14:19:29;;;;;;;2.00;1.80;;;;;;;;;;5059883;28;20036;-78
2023/07/17 14:21:55;;;;;;;2.38;1.90;;;;;;;;;;5074257;28;20028;-77
2023/07/17 14:24:21;;;;;;;2.10;1.90;;;;;;;;;;5065039;28;20119;-79
2023/07/17 14:26:47;;;;;;;1.75;1.60;;;;;;;;;;5059458;28;20055;-78
2023/07/17 14:29:13;;;;;;;2.88;1.85;;;;;;;;;;5056518;28;20059;-79
2023/07/17 14:31:39;;;;;;;1.90;1.70;;;;;;;;;;5066406;28;20029;-78
2023/07/17 14:34:06;;;;;;;2.58;1.70;;;;;;;;;;5056247;28;20056;-78
2023/07/17 14:36:32;;;;;;;1.70;1.60;;;;;;;;;;5058928;28;20024;-77
2023/07/17 14:38:58;;;;;;;2.13;1.52;;;;;;;;;;5060165;28;20051;-78
2023/07/17 14:41:24;;;;;;;1.70;1.60;;;;;;;;;;5061966;28;20025;-77